Time;durP1;ratioP1;P1;durP2;ratioP2;P2;SDS_P1;SDS_P2;PMS_P1;PMS_P2;Temp;Humidity;BMP_temperature;BMP_pressure;BME280_temperature;BME280_humidity;BME280_pressure;Samples;Min_cycle;Max_cycle;Signal;HPM_P1;HPM_P2
2022/05/06 00:01:28;;;;;;;;;;;;;;;;;;4997400;28;19921;-81
2022/05/06 00:03:54;;;;;;;;;;;;;;;;;;4999329;28;20062;-81
2022/05/06 00:06:20;;;;;;;;;;;;;;;;;;5001767;28;19925;-81
2022/05/06 00:08:46;;;;;;;;;;;;;;;;;;5004969;28;19913;-80
2022/05/06 00:11:12;;;;;;;;;;;;;;;;;;4996832;28;19921;-81
2022/05/06 00:13:38;;;;;;;;;;;;;;;;;;5003099;28;20380;-81
2022/05/06 00:16:04;;;;;;;;;;;;;;;;;;5013708;28;19992;-80
2022/05/06 00:18:31;;;;;;;;;;;;;;;;;;5003467;28;20316;-80
2022/05/06 00:20:57;;;;;;;;;;;;;;;;;;5003679;28;19910;-80
2022/05/06 00:23:23;;;;;;;;;;;;;;;;;;5002604;28;20023;-80
2022/05/06 00:25:49;;;;;;;;;;;;;;;;;;5022163;28;19983;-81
2022/05/06 00:28:15;;;;;;;;;;;;;;;;;;5016717;28;19959;-80
2022/05/06 00:30:41;;;;;;;;;;;;;;;;;;5008447;28;19952;-81
2022/05/06 00:33:09;;;;;;;;;;;;;;;;;;5017147;28;19917;-81
2022/05/06 00:35:36;;;;;;;;;;;;;;;;;;5008807;28;19943;-80
2022/05/06 00:38:02;;;;;;;;;;;;;;;;;;5031590;28;20467;-81
2022/05/06 00:40:27;;;;;;;;;;;;;;;;;;5030593;28;20341;-80
2022/05/06 00:42:55;;;;;;;;;;;;;;;;;;5034624;28;20296;-83
2022/05/06 00:45:21;;;;;;;;;;;;;;;;;;5013977;28;19917;-80
2022/05/06 00:47:47;;;;;;;;;;;;;;;;;;5034676;28;19921;-80
2022/05/06 00:50:13;;;;;;;;;;;;;;;;;;5030402;28;19920;-81
2022/05/06 00:52:39;;;;;;;;;;;;;;;;;;5035791;28;19916;-80
2022/05/06 00:55:05;;;;;;;;;;;;;;;;;;5032635;28;20279;-81
2022/05/06 00:57:31;;;;;;;;;;;;;;;;;;5016084;28;19939;-80
2022/05/06 01:02:41;;;;;;;;;;;;;;;;;;5034492;28;19936;-80
2022/05/06 01:05:09;;;;;;;;;;;;;;;;;;5015893;28;19920;-80
2022/05/06 01:07:35;;;;;;;;;;;;;;;;;;5023766;28;19970;-80
2022/05/06 01:10:01;;;;;;;;;;;;;;;;;;5034973;28;19956;-81
2022/05/06 01:12:27;;;;;;;;;;;;;;;;;;5017554;28;19942;-81
2022/05/06 01:14:52;;;;;;;;;;;;;;;;;;5018564;28;20169;-81
2022/05/06 01:17:18;;;;;;;;;;;;;;;;;;5023010;28;19921;-80
2022/05/06 01:19:44;;;;;;;;;;;;;;;;;;5017352;28;19979;-80
2022/05/06 01:22:10;;;;;;;;;;;;;;;;;;5017819;28;19921;-81
2022/05/06 01:24:36;;;;;;;;;;;;;;;;;;5030924;28;20257;-80
2022/05/06 01:27:03;;;;;;;;;;;;;;;;;;5017230;28;19924;-80
2022/05/06 01:29:30;;;;;;;;;;;;;;;;;;5037304;28;20379;-81
2022/05/06 01:31:56;;;;;;;;;;;;;;;;;;5013424;28;19956;-80
2022/05/06 01:34:22;;;;;;;;;;;;;;;;;;5037479;28;19917;-80
2022/05/06 01:36:48;;;;;;;;;;;;;;;;;;5014304;28;19931;-80
2022/05/06 01:39:15;;;;;;;;;;;;;;;;;;5039055;28;19959;-80
2022/05/06 01:41:41;;;;;;;;;;;;;;;;;;5035710;28;19995;-81
2022/05/06 01:44:07;;;;;;;;;;;;;;;;;;5040611;28;20007;-80
2022/05/06 01:46:33;;;;;;;;;;;;;;;;;;5017397;28;20675;-80
2022/05/06 01:48:59;;;;;;;;;;;;;;;;;;5039290;28;20020;-81
2022/05/06 01:51:25;;;;;;;;;;;;;;;;;;5032405;28;19921;-80
2022/05/06 01:53:52;;;;;;;;;;;;;;;;;;5030868;28;21994;-80
2022/05/06 01:56:17;;;;;;;;;;;;;;;;;;5017761;28;20057;-81
2022/05/06 01:58:43;;;;;;;;;;;;;;;;;;5015888;28;19917;-80
2022/05/06 02:01:11;;;;;;;;;;;;;;;;;;5013554;28;19912;-80
2022/05/06 02:06:21;;;;;;;;;;;;;;;;;;5031366;28;20317;-81
2022/05/06 02:08:47;;;;;;;;;;;;;;;;;;5034989;28;19913;-81
2022/05/06 02:11:13;;;;;;;;;;;;;;;;;;5035424;28;19921;-81
2022/05/06 02:13:39;;;;;;;;;;;;;;;;;;5032288;28;20460;-81
2022/05/06 02:16:05;;;;;;;;;;;;;;;;;;5027182;28;20391;-80
2022/05/06 02:18:31;;;;;;;;;;;;;;;;;;5024399;28;19917;-81
2022/05/06 02:20:57;;;;;;;;;;;;;;;;;;5017926;28;20384;-81
2022/05/06 02:23:23;;;;;;;;;;;;;;;;;;5032960;28;19921;-80
2022/05/06 02:25:48;;;;;;;;;;;;;;;;;;5032441;28;20514;-81
2022/05/06 02:28:14;;;;;;;;;;;;;;;;;;5030346;28;19913;-81
2022/05/06 02:33:25;;;;;;;;;;;;;;;;;;5033978;28;19936;-81
2022/05/06 02:35:54;;;;;;;;;;;;;;;;;;5027861;28;20352;-80
2022/05/06 02:38:20;;;;;;;;;;;;;;;;;;5016812;28;19964;-81
2022/05/06 02:40:47;;;;;;;;;;;;;;;;;;5015109;28;20296;-81
2022/05/06 02:43:13;;;;;;;;;;;;;;;;;;5017642;28;19933;-83
2022/05/06 02:45:39;;;;;;;;;;;;;;;;;;5020094;28;19913;-81
2022/05/06 02:48:05;;;;;;;;;;;;;;;;;;5012315;28;20013;-82
2022/05/06 02:50:31;;;;;;;;;;;;;;;;;;5015010;28;19921;-80
2022/05/06 02:52:57;;;;;;;;;;;;;;;;;;5006363;28;19967;-80
2022/05/06 02:55:23;;;;;;;;;;;;;;;;;;5001270;28;19925;-79
2022/05/06 02:57:49;;;;;;;;;;;;;;;;;;5004373;28;19917;-81
2022/05/06 03:00:15;;;;;;;;;;;;;;;;;;5015078;28;19913;-80
2022/05/06 03:02:41;;;;;;;;;;;;;;;;;;4998449;28;20196;-81
2022/05/06 03:05:07;;;;;;;;;;;;;;;;;;5021174;28;19959;-80
2022/05/06 03:07:33;;;;;;;;;;;;;;;;;;5018174;28;20296;-81
2022/05/06 03:09:59;;;;;;;;;;;;;;;;;;5019100;28;19920;-81
2022/05/06 03:12:29;;;;;;;;;;;;;;;;;;5004068;28;20016;-81
2022/05/06 03:14:55;;;;;;;;;;;;;;;;;;5009177;28;19972;-81
2022/05/06 03:17:21;;;;;;;;;;;;;;;;;;5007590;28;19922;-81
2022/05/06 03:19:47;;;;;;;;;;;;;;;;;;5017987;28;19924;-81
2022/05/06 03:22:16;;;;;;;;;;;;;;;;;;5027603;28;20055;-81
2022/05/06 03:24:42;;;;;;;;;;;;;;;;;;5007661;28;19917;-81
2022/05/06 03:29:53;;;;;;;;;;;;;;;;;;5024781;28;19949;-80
2022/05/06 03:32:18;;;;;;;;;;;;;;;;;;5020431;28;20364;-81
2022/05/06 03:34:44;;;;;;;;;;;;;;;;;;5018636;28;19913;-81
2022/05/06 03:37:10;;;;;;;;;;;;;;;;;;5007733;28;19932;-80
2022/05/06 03:39:36;;;;;;;;;;;;;;;;;;5018992;28;19939;-81
2022/05/06 03:42:02;;;;;;;;;;;;;;;;;;5022118;28;19917;-80
2022/05/06 03:44:28;;;;;;;;;;;;;;;;;;5041167;28;19956;-80
2022/05/06 03:46:54;;;;;;;;;;;;;;;;;;5020579;28;20069;-81
2022/05/06 03:49:20;;;;;;;;;;;;;;;;;;5022739;28;19983;-81
2022/05/06 03:51:46;;;;;;;;;;;;;;;;;;5036709;28;19909;-82
2022/05/06 03:54:12;;;;;;;;;;;;;;;;;;5042034;28;19982;-81
2022/05/06 03:56:38;;;;;;;;;;;;;;;;;;5025181;28;19913;-81
2022/05/06 03:59:04;;;;;;;;;;;;;;;;;;5038524;28;20015;-80
2022/05/06 04:01:30;;;;;;;;;;;;;;;;;;5018082;28;19939;-80
2022/05/06 04:03:56;;;;;;;;;;;;;;;;;;5019648;28;20045;-80
2022/05/06 04:06:22;;;;;;;;;;;;;;;;;;5036952;28;19932;-81
2022/05/06 04:08:48;;;;;;;;;;;;;;;;;;5024039;28;20490;-80
2022/05/06 04:11:14;;;;;;;;;;;;;;;;;;5041171;28;20012;-80
2022/05/06 04:13:40;;;;;;;;;;;;;;;;;;5024718;28;20007;-81
2022/05/06 04:16:09;;;;;;;;;;;;;;;;;;5040879;28;20439;-81
2022/05/06 04:18:35;;;;;;;;;;;;;;;;;;5022068;28;19921;-81
2022/05/06 04:23:45;;;;;;;;;;;;;;;;;;5038182;28;20292;-80
2022/05/06 04:26:11;;;;;;;;;;;;;;;;;;5039224;28;19908;-81
2022/05/06 04:28:37;;;;;;;;;;;;;;;;;;5021859;28;19917;-80
2022/05/06 04:31:03;;;;;;;;;;;;;;;;;;5016922;28;19925;-80
2022/05/06 04:33:29;;;;;;;;;;;;;;;;;;5031941;28;19921;-80
2022/05/06 04:35:55;;;;;;;;;;;;;;;;;;5020548;28;19921;-80
2022/05/06 04:38:22;;;;;;;;;;;;;;;;;;5012256;28;20413;-80
2022/05/06 04:40:48;;;;;;;;;;;;;;;;;;5026500;28;20013;-81
2022/05/06 04:43:14;;;;;;;;;;;;;;;;;;5021090;28;20019;-80
2022/05/06 04:45:40;;;;;;;;;;;;;;;;;;5036479;28;19913;-81
2022/05/06 04:48:06;;;;;;;;;;;;;;;;;;5021606;28;20380;-81
2022/05/06 04:50:32;;;;;;;;;;;;;;;;;;5031874;28;20510;-80
2022/05/06 04:52:58;;;;;;;;;;;;;;;;;;5016930;28;19917;-80
2022/05/06 04:55:24;;;;;;;;;;;;;;;;;;5031821;28;19928;-80
2022/05/06 04:57:50;;;;;;;;;;;;;;;;;;5037698;28;19976;-80
2022/05/06 05:00:16;;;;;;;;;;;;;;;;;;5022351;28;20002;-80
2022/05/06 05:02:42;;;;;;;;;;;;;;;;;;5015591;28;19917;-80
2022/05/06 05:05:08;;;;;;;;;;;;;;;;;;5017760;28;19958;-80
2022/05/06 05:07:34;;;;;;;;;;;;;;;;;;5036154;28;20652;-81
2022/05/06 05:10:00;;;;;;;;;;;;;;;;;;5014905;28;19921;-81
2022/05/06 05:12:26;;;;;;;;;;;;;;;;;;5024106;28;20356;-80
2022/05/06 05:14:52;;;;;;;;;;;;;;;;;;5018630;28;19912;-80
2022/05/06 05:17:17;;;;;;;;;;;;;;;;;;5039086;28;20383;-80
2022/05/06 05:19:43;;;;;;;;;;;;;;;;;;5022011;28;19943;-80
2022/05/06 05:22:09;;;;;;;;;;;;;;;;;;5032893;28;19912;-81
2022/05/06 05:24:35;;;;;;;;;;;;;;;;;;5024318;28;20328;-80
2022/05/06 05:27:01;;;;;;;;;;;;;;;;;;5037542;28;20003;-80
2022/05/06 05:29:27;;;;;;;;;;;;;;;;;;5015810;28;19924;-81
2022/05/06 05:31:53;;;;;;;;;;;;;;;;;;5018452;28;19928;-80
2022/05/06 05:34:19;;;;;;;;;;;;;;;;;;5033969;28;19917;-81
2022/05/06 05:36:51;;;;;;;;;;;;;;;;;;5017415;28;19909;-81
2022/05/06 05:39:17;;;;;;;;;;;;;;;;;;5020640;28;19925;-80
2022/05/06 05:41:43;;;;;;;;;;;;;;;;;;5015212;28;19917;-81
2022/05/06 05:49:39;;;;;;;;;;;;;;;;;;5036194;28;19966;-81
2022/05/06 05:52:04;;;;;;;;;;;;;;;;;;5031939;28;19928;-80
2022/05/06 05:54:30;;;;;;;;;;;;;;;;;;5035382;28;19925;-80
2022/05/06 05:56:56;;;;;;;;;;;;;;;;;;5011854;28;19912;-80
2022/05/06 05:59:22;;;;;;;;;;;;;;;;;;5021127;28;20415;-81
2022/05/06 06:01:49;;;;;;;;;;;;;;;;;;5036369;28;20334;-80
2022/05/06 06:04:15;;;;;;;;;;;;;;;;;;5018836;28;19970;-81
2022/05/06 06:06:41;;;;;;;;;;;;;;;;;;5029911;28;19960;-81
2022/05/06 06:09:07;;;;;;;;;;;;;;;;;;5017194;28;19916;-80
2022/05/06 06:11:33;;;;;;;;;;;;;;;;;;5038141;28;19970;-80
2022/05/06 06:13:59;;;;;;;;;;;;;;;;;;5030479;28;19917;-80
2022/05/06 06:16:26;;;;;;;;;;;;;;;;;;5020237;28;20445;-81
2022/05/06 06:18:52;;;;;;;;;;;;;;;;;;5018428;28;19913;-80
2022/05/06 06:21:18;;;;;;;;;;;;;;;;;;5019298;28;20288;-81
2022/05/06 06:23:44;;;;;;;;;;;;;;;;;;5015492;28;20115;-81
2022/05/06 06:26:10;;;;;;;;;;;;;;;;;;5033520;28;19917;-80
2022/05/06 06:28:36;;;;;;;;;;;;;;;;;;5014096;28;19950;-80
2022/05/06 06:31:01;;;;;;;;;;;;;;;;;;5020479;28;19916;-81
2022/05/06 06:33:27;;;;;;;;;;;;;;;;;;5029146;28;19920;-81
2022/05/06 06:35:53;;;;;;;;;;;;;;;;;;5022206;28;19924;-82
2022/05/06 06:38:19;;;;;;;;;;;;;;;;;;5025536;28;20214;-80
2022/05/06 06:40:45;;;;;;;;;;;;;;;;;;5004905;28;19975;-81
2022/05/06 06:43:11;;;;;;;;;;;;;;;;;;4999896;28;20343;-81
2022/05/06 06:45:37;;;;;;;;;;;;;;;;;;5004274;28;19917;-81
2022/05/06 06:48:03;;;;;;;;;;;;;;;;;;5010687;28;20324;-81
2022/05/06 06:50:29;;;;;;;;;;;;;;;;;;5014633;28;19925;-80
2022/05/06 06:52:55;;;;;;;;;;;;;;;;;;5013364;28;19967;-80
2022/05/06 06:55:21;;;;;;;;;;;;;;;;;;5016414;28;19963;-81
2022/05/06 06:57:47;;;;;;;;;;;;;;;;;;5018953;28;19921;-80
2022/05/06 07:00:13;;;;;;;;;;;;;;;;;;4997545;28;20012;-80
2022/05/06 07:02:45;;;;;;;;;;;;;;;;;;4997221;28;19917;-80
2022/05/06 07:05:11;;;;;;;;;;;;;;;;;;4996607;28;19940;-80
2022/05/06 07:13:07;;;;;;;;;;;;;;;;;;5025972;28;20568;-81
2022/05/06 07:15:32;;;;;;;;;;;;;;;;;;5012686;28;20008;-80
2022/05/06 07:17:58;;;;;;;;;;;;;;;;;;4994349;28;20256;-80
2022/05/06 07:20:24;;;;;;;;;;;;;;;;;;4997161;28;19913;-81
2022/05/06 07:22:50;;;;;;;;;;;;;;;;;;5016722;28;20316;-80
2022/05/06 07:25:16;;;;;;;;;;;;;;;;;;5008770;28;19925;-80
2022/05/06 07:27:43;;;;;;;;;;;;;;;;;;4999818;28;19990;-80
2022/05/06 07:30:09;;;;;;;;;;;;;;;;;;5015281;28;20465;-80
2022/05/06 07:32:37;;;;;;;;;;;;;;;;;;4995764;28;19917;-80
2022/05/06 07:35:02;;;;;;;;;;;;;;;;;;5007702;28;20467;-80
2022/05/06 07:37:33;;;;;;;;;;;;;;;;;;5007126;28;20024;-81
2022/05/06 07:39:59;;;;;;;;;;;;;;;;;;5028418;28;19967;-81
2022/05/06 07:42:25;;;;;;;;;;;;;;;;;;5032053;28;19917;-80
2022/05/06 07:44:51;;;;;;;;;;;;;;;;;;5027079;28;20325;-80
2022/05/06 07:47:17;;;;;;;;;;;;;;;;;;5016330;28;19956;-80
2022/05/06 07:49:43;;;;;;;;;;;;;;;;;;5033545;28;19924;-80
2022/05/06 07:52:09;;;;;;;;;;;;;;;;;;5017481;28;20344;-80
2022/05/06 07:54:35;;;;;;;;;;;;;;;;;;5016329;28;19916;-80
2022/05/06 07:57:01;;;;;;;;;;;;;;;;;;5017328;28;20410;-80
2022/05/06 07:59:27;;;;;;;;;;;;;;;;;;5017569;28;20361;-80
2022/05/06 08:04:38;;;;;;;;;;;;;;;;;;5038928;28;19920;-80
2022/05/06 08:07:04;;;;;;;;;;;;;;;;;;5038972;28;19921;-80
2022/05/06 08:09:30;;;;;;;;;;;;;;;;;;5035295;28;20318;-80
2022/05/06 08:11:55;;;;;;;;;;;;;;;;;;5019161;28;20343;-80
2022/05/06 08:14:21;;;;;;;;;;;;;;;;;;5026800;28;19921;-80
2022/05/06 08:16:47;;;;;;;;;;;;;;;;;;5025500;28;19924;-81
2022/05/06 08:19:13;;;;;;;;;;;;;;;;;;5038841;28;19939;-80
2022/05/06 08:21:39;;;;;;;;;;;;;;;;;;5021747;28;19972;-80
2022/05/06 08:24:05;;;;;;;;;;;;;;;;;;5039704;28;19921;-80
2022/05/06 08:26:31;;;;;;;;;;;;;;;;;;5022673;28;20000;-80
2022/05/06 08:28:57;;;;;;;;;;;;;;;;;;5027149;28;19999;-80
2022/05/06 08:31:23;;;;;;;;;;;;;;;;;;5036206;28;19920;-80
2022/05/06 08:33:49;;;;;;;;;;;;;;;;;;5043337;28;19958;-80
2022/05/06 08:36:15;;;;;;;;;;;;;;;;;;5059368;28;19912;-80
2022/05/06 08:38:42;;;;;;;;;;;;;;;;;;5034305;28;19960;-80
2022/05/06 08:41:08;;;;;;;;;;;;;;;;;;5019697;28;19924;-80
2022/05/06 08:43:34;;;;;;;;;;;;;;;;;;4997826;28;20196;-80
2022/05/06 08:51:29;;;;;;;;;;;;;;;;;;5018837;28;19928;-80
2022/05/06 08:53:55;;;;;;;;;;;;;;;;;;5017697;28;20400;-80
2022/05/06 08:56:21;;;;;;;;;;;;;;;;;;5017678;28;19931;-80
2022/05/06 08:58:47;;;;;;;;;;;;;;;;;;5017255;28;19921;-80
2022/05/06 09:01:13;;;;;;;;;;;;;;;;;;5007373;28;19923;-80
2022/05/06 09:03:39;;;;;;;;;;;;;;;;;;5015572;28;20642;-80
2022/05/06 09:06:05;;;;;;;;;;;;;;;;;;5019028;28;19917;-80
2022/05/06 09:08:35;;;;;;;;;;;;;;;;;;5001039;28;19917;-80
2022/05/06 09:11:04;;;;;;;;;;;;;;;;;;5002335;28;19983;-79
2022/05/06 09:13:30;;;;;;;;;;;;;;;;;;4993304;28;19944;-80
2022/05/06 09:18:41;;;;;;;;;;;;;;;;;;5021814;28;19919;-80
2022/05/06 09:21:07;;;;;;;;;;;;;;;;;;4999910;28;19917;-80
2022/05/06 09:23:33;;;;;;;;;;;;;;;;;;5018902;28;19932;-80
2022/05/06 09:25:59;;;;;;;;;;;;;;;;;;5019267;28;19913;-80
2022/05/06 09:28:29;;;;;;;;;;;;;;;;;;5004473;28;20280;-80
2022/05/06 09:30:55;;;;;;;;;;;;;;;;;;5012836;28;20431;-80
2022/05/06 09:33:20;;;;;;;;;;;;;;;;;;5020687;28;20118;-79
2022/05/06 09:35:46;;;;;;;;;;;;;;;;;;5006849;28;19917;-79
2022/05/06 09:38:13;;;;;;;;;;;;;;;;;;4996481;28;19979;-79
2022/05/06 09:40:39;;;;;;;;;;;;;;;;;;5015183;28;19952;-80
2022/05/06 09:43:05;;;;;;;;;;;;;;;;;;5018750;28;20615;-81
2022/05/06 09:45:32;;;;;;;;;;;;;;;;;;4999352;28;19923;-80
2022/05/06 09:48:01;;;;;;;;;;;;;;;;;;5002609;28;20011;-80
2022/05/06 09:50:27;;;;;;;;;;;;;;;;;;5019755;28;19928;-79
2022/05/06 09:52:53;;;;;;;;;;;;;;;;;;5014974;28;19932;-79
2022/05/06 09:55:18;;;;;;;;;;;;;;;;;;5012551;28;19917;-79
2022/05/06 09:57:44;;;;;;;;;;;;;;;;;;4995799;28;19924;-80
2022/05/06 10:00:10;;;;;;;;;;;;;;;;;;5016979;28;20316;-80
2022/05/06 10:02:38;;;;;;;;;;;;;;;;;;4997509;28;20049;-79
2022/05/06 10:05:04;;;;;;;;;;;;;;;;;;4999192;28;20258;-80
2022/05/06 10:07:30;;;;;;;;;;;;;;;;;;5014796;28;19918;-80
2022/05/06 10:09:56;;;;;;;;;;;;;;;;;;5016424;28;19931;-79
2022/05/06 10:12:22;;;;;;;;;;;;;;;;;;5000387;28;19956;-80
2022/05/06 10:14:48;;;;;;;;;;;;;;;;;;5016012;28;19921;-80
2022/05/06 10:17:14;;;;;;;;;;;;;;;;;;5000627;28;20345;-79
2022/05/06 10:19:40;;;;;;;;;;;;;;;;;;5002934;28;19913;-80
2022/05/06 10:22:06;;;;;;;;;;;;;;;;;;4997740;28;19974;-80
2022/05/06 10:24:32;;;;;;;;;;;;;;;;;;5011181;28;19909;-80
2022/05/06 10:26:58;;;;;;;;;;;;;;;;;;4997624;28;20478;-80
2022/05/06 10:32:27;;;;;;;;;;;;;;;;;;5018522;28;19982;-80
2022/05/06 10:34:53;;;;;;;;;;;;;;;;;;4996222;28;19952;-80
2022/05/06 10:37:19;;;;;;;;;;;;;;;;;;5010581;28;20212;-80
2022/05/06 10:39:45;;;;;;;;;;;;;;;;;;5013502;28;20024;-80
2022/05/06 10:42:11;;;;;;;;;;;;;;;;;;5015947;28;19970;-80
2022/05/06 10:44:36;;;;;;;;;;;;;;;;;;4993561;28;19918;-80
2022/05/06 10:47:03;;;;;;;;;;;;;;;;;;4998409;28;19917;-80
2022/05/06 10:49:29;;;;;;;;;;;;;;;;;;5011426;28;19925;-80
2022/05/06 10:51:54;;;;;;;;;;;;;;;;;;4997950;28;19921;-80
2022/05/06 10:54:21;;;;;;;;;;;;;;;;;;4998756;28;20000;-80
2022/05/06 10:56:46;;;;;;;;;;;;;;;;;;4998990;28;19929;-80
2022/05/06 10:59:12;;;;;;;;;;;;;;;;;;4996289;28;19940;-80
2022/05/06 11:01:38;;;;;;;;;;;;;;;;;;4996015;28;19940;-81
2022/05/06 11:04:04;;;;;;;;;;;;;;;;;;4998701;28;20300;-80
2022/05/06 11:06:30;;;;;;;;;;;;;;;;;;4999327;28;19917;-80
2022/05/06 11:08:56;;;;;;;;;;;;;;;;;;5011554;28;19921;-80
2022/05/06 11:11:22;;;;;;;;;;;;;;;;;;5021072;28;19928;-81
2022/05/06 11:13:49;;;;;;;;;;;;;;;;;;5025196;28;19967;-79
2022/05/06 11:16:15;;;;;;;;;;;;;;;;;;5015655;28;20354;-81
2022/05/06 11:18:48;;;;;;;;;;;;;;;;;;4997412;28;20318;-80
2022/05/06 11:21:14;;;;;;;;;;;;;;;;;;5016929;28;20615;-80
2022/05/06 11:23:40;;;;;;;;;;;;;;;;;;4993563;28;19914;-80
2022/05/06 11:26:06;;;;;;;;;;;;;;;;;;4998905;28;19913;-79
2022/05/06 11:28:32;;;;;;;;;;;;;;;;;;5007948;28;20396;-80
2022/05/06 11:30:59;;;;;;;;;;;;;;;;;;5012302;28;19928;-80
2022/05/06 11:33:25;;;;;;;;;;;;;;;;;;5006051;28;19921;-80
2022/05/06 11:35:51;;;;;;;;;;;;;;;;;;4991404;28;20344;-79
2022/05/06 11:38:17;;;;;;;;;;;;;;;;;;5002538;28;19916;-80
2022/05/06 11:40:43;;;;;;;;;;;;;;;;;;5041035;28;19929;-80
2022/05/06 11:43:09;;;;;;;;;;;;;;;;;;5043593;28;19920;-82
2022/05/06 11:48:23;;;;;;;;;;;;;;;;;;5055900;28;19963;-80
2022/05/06 11:50:49;;;;;;;;;;;;;;;;;;5057149;28;20362;-80
2022/05/06 11:53:15;;;;;;;;;;;;;;;;;;5038225;28;19916;-80
2022/05/06 11:55:41;;;;;;;;;;;;;;;;;;5039006;28;19921;-80
2022/05/06 11:58:07;;;;;;;;;;;;;;;;;;5063985;28;20396;-81
2022/05/06 12:00:33;;;;;;;;;;;;;;;;;;5039911;28;19917;-80
2022/05/06 12:02:59;;;;;;;;;;;;;;;;;;5060994;28;19923;-80
2022/05/06 12:05:25;;;;;;;;;;;;;;;;;;5043328;28;19912;-79
2022/05/06 12:07:51;;;;;;;;;;;;;;;;;;5050891;28;19974;-79
2022/05/06 12:10:17;;;;;;;;;;;;;;;;;;5042993;28;19913;-80
2022/05/06 12:12:43;;;;;;;;;;;;;;;;;;5039193;28;19917;-80
2022/05/06 12:15:08;;;;;;;;;;;;;;;;;;5041840;28;19912;-80
2022/05/06 12:17:34;;;;;;;;;;;;;;;;;;5040524;28;19966;-80
2022/05/06 12:20:00;;;;;;;;;;;;;;;;;;5042027;28;20286;-80
2022/05/06 12:22:26;;;;;;;;;;;;;;;;;;5040487;28;19917;-80
2022/05/06 12:24:55;;;;;;;;;;;;;;;;;;5051949;28;19927;-79
2022/05/06 12:27:21;;;;;;;;;;;;;;;;;;5053795;28;20454;-79
2022/05/06 12:29:47;;;;;;;;;;;;;;;;;;5056461;28;19999;-81
2022/05/06 12:32:13;;;;;;;;;;;;;;;;;;5051732;28;20335;-80
2022/05/06 12:34:38;;;;;;;;;;;;;;;;;;5058768;28;19912;-80
2022/05/06 12:37:04;;;;;;;;;;;;;;;;;;5044152;28;19979;-80
2022/05/06 12:39:30;;;;;;;;;;;;;;;;;;5019553;28;19960;-80
2022/05/06 12:41:56;;;;;;;;;;;;;;;;;;5006847;28;19956;-80
2022/05/06 12:44:23;;;;;;;;;;;;;;;;;;5026173;28;20300;-81
2022/05/06 12:46:49;;;;;;;;;;;;;;;;;;5008207;28;19918;-80
2022/05/06 12:51:59;;;;;;;;;;;;;;;;;;5022759;28;19962;-80
2022/05/06 12:54:28;;;;;;;;;;;;;;;;;;5008372;28;20215;-81
2022/05/06 12:56:55;;;;;;;;;;;;;;;;;;5019664;28;20338;-80
2022/05/06 12:59:21;;;;;;;;;;;;;;;;;;5014394;28;19921;-80
2022/05/06 13:01:47;;;;;;;;;;;;;;;;;;5021325;28;20456;-80
2022/05/06 13:04:13;;;;;;;;;;;;;;;;;;5008424;28;20180;-81
2022/05/06 13:06:39;;;;;;;;;;;;;;;;;;5023062;28;19921;-81
2022/05/06 13:09:05;;;;;;;;;;;;;;;;;;5026617;28;19923;-81
2022/05/06 13:11:31;;;;;;;;;;;;;;;;;;5013485;28;19955;-81
2022/05/06 13:13:59;;;;;;;;;;;;;;;;;;5019731;28;19920;-81
2022/05/06 13:16:25;;;;;;;;;;;;;;;;;;5021198;28;20401;-80
2022/05/06 13:18:52;;;;;;;;;;;;;;;;;;5007891;28;19930;-80
2022/05/06 13:21:18;;;;;;;;;;;;;;;;;;5023834;28;19959;-80
2022/05/06 13:23:44;;;;;;;;;;;;;;;;;;5013439;28;20132;-80
2022/05/06 13:26:10;;;;;;;;;;;;;;;;;;5009922;28;19917;-81
2022/05/06 13:28:36;;;;;;;;;;;;;;;;;;5022103;28;20404;-80
2022/05/06 13:31:02;;;;;;;;;;;;;;;;;;5018047;28;19921;-80
2022/05/06 13:33:29;;;;;;;;;;;;;;;;;;5005711;28;19917;-80
2022/05/06 13:35:57;;;;;;;;;;;;;;;;;;4998274;28;20312;-80
2022/05/06 13:38:23;;;;;;;;;;;;;;;;;;5003827;28;19925;-80
2022/05/06 13:40:50;;;;;;;;;;;;;;;;;;5019404;28;19928;-83
2022/05/06 13:43:16;;;;;;;;;;;;;;;;;;4996949;28;19926;-81
2022/05/06 13:45:41;;;;;;;;;;;;;;;;;;5023137;28;20416;-80
2022/05/06 13:48:07;;;;;;;;;;;;;;;;;;5021676;28;19917;-82
2022/05/06 13:50:33;;;;;;;;;;;;;;;;;;5016217;28;19964;-80
2022/05/06 13:52:59;;;;;;;;;;;;;;;;;;5012990;28;19951;-85
2022/05/06 14:00:54;;;;;;;;;;;;;;;;;;5017076;28;19931;-80
2022/05/06 14:03:23;;;;;;;;;;;;;;;;;;5000640;28;20004;-80
2022/05/06 14:05:49;;;;;;;;;;;;;;;;;;5013947;28;20008;-82
2022/05/06 14:08:15;;;;;;;;;;;;;;;;;;5003797;28;20039;-80
2022/05/06 14:10:41;;;;;;;;;;;;;;;;;;5001702;28;20363;-79
2022/05/06 14:13:07;;;;;;;;;;;;;;;;;;5001052;28;19925;-80
2022/05/06 14:15:33;;;;;;;;;;;;;;;;;;4998959;28;19914;-80
2022/05/06 14:17:58;;;;;;;;;;;;;;;;;;5002813;28;19952;-81
2022/05/06 14:20:24;;;;;;;;;;;;;;;;;;5016437;28;20525;-80
2022/05/06 14:22:51;;;;;;;;;;;;;;;;;;4997683;28;20372;-81
2022/05/06 14:25:17;;;;;;;;;;;;;;;;;;5019133;28;20505;-81
2022/05/06 14:27:44;;;;;;;;;;;;;;;;;;5015973;28;19921;-81
2022/05/06 14:30:10;;;;;;;;;;;;;;;;;;5014675;28;20424;-81
2022/05/06 14:32:37;;;;;;;;;;;;;;;;;;4993837;28;19918;-79
2022/05/06 14:35:21;;;;;;;;;;;;;;;;;;5008992;28;20246;-78
2022/05/06 14:37:51;;;;;;;;;;;;;;;;;;5013028;28;19917;-80
2022/05/06 14:40:17;;;;;;;;;;;;;;;;;;5018468;28;19924;-79
2022/05/06 14:42:43;;;;;;;;;;;;;;;;;;4997908;28;20607;-85
2022/05/06 14:45:09;;;;;;;;;;;;;;;;;;5003341;28;19924;-83
2022/05/06 14:47:35;;;;;;;;;;;;;;;;;;4998421;28;19929;-83
2022/05/06 14:50:01;;;;;;;;;;;;;;;;;;5018317;28;20387;-82
2022/05/06 14:52:27;;;;;;;;;;;;;;;;;;5000685;28;19921;-79
2022/05/06 14:54:53;;;;;;;;;;;;;;;;;;4997233;28;19930;-78
2022/05/06 14:57:18;;;;;;;;;;;;;;;;;;5011288;28;19928;-79
2022/05/06 14:59:44;;;;;;;;;;;;;;;;;;5015268;28;20067;-78
2022/05/06 15:02:10;;;;;;;;;;;;;;;;;;4996545;28;20439;-79
2022/05/06 15:04:37;;;;;;;;;;;;;;;;;;5013444;28;19914;-79
2022/05/06 15:07:04;;;;;;;;;;;;;;;;;;4991745;28;20339;-78
2022/05/06 15:09:30;;;;;;;;;;;;;;;;;;4999974;28;20431;-78
2022/05/06 15:11:56;;;;;;;;;;;;;;;;;;4995177;28;19913;-77
2022/05/06 15:14:31;;;;;;;;;;;;;;;;;;4991025;28;19921;-79
2022/05/06 15:16:58;;;;;;;;;;;;;;;;;;5011386;28;19964;-78
2022/05/06 15:19:24;;;;;;;;;;;;;;;;;;4999942;28;20356;-78
2022/05/06 15:21:51;;;;;;;;;;;;;;;;;;5014911;28;20471;-78
2022/05/06 15:24:17;;;;;;;;;;;;;;;;;;4999348;28;19955;-78
2022/05/06 15:26:44;;;;;;;;;;;;;;;;;;4995055;28;20662;-78
2022/05/06 15:29:10;;;;;;;;;;;;;;;;;;5013603;28;20998;-78
2022/05/06 15:31:36;;;;;;;;;;;;;;;;;;4998516;28;19928;-80
2022/05/06 15:34:01;;;;;;;;;;;;;;;;;;5013976;28;20004;-78
2022/05/06 15:36:27;;;;;;;;;;;;;;;;;;5006189;28;19917;-78
2022/05/06 15:38:53;;;;;;;;;;;;;;;;;;5020588;28;19927;-78
2022/05/06 15:41:21;;;;;;;;;;;;;;;;;;5013239;28;20262;-79
2022/05/06 15:43:48;;;;;;;;;;;;;;;;;;5009799;28;20328;-79
2022/05/06 15:46:14;;;;;;;;;;;;;;;;;;4997212;28;19917;-78
2022/05/06 15:48:40;;;;;;;;;;;;;;;;;;5012843;28;19917;-78
2022/05/06 15:51:06;;;;;;;;;;;;;;;;;;4997761;28;19996;-77
2022/05/06 15:53:32;;;;;;;;;;;;;;;;;;5014670;28;19917;-78
2022/05/06 15:55:58;;;;;;;;;;;;;;;;;;4996309;28;20266;-78
2022/05/06 15:58:27;;;;;;;;;;;;;;;;;;4995578;28;20127;-79
2022/05/06 16:00:53;;;;;;;;;;;;;;;;;;5001493;28;20622;-77
2022/05/06 16:03:19;;;;;;;;;;;;;;;;;;5002915;28;21421;-78
2022/05/06 16:05:45;;;;;;;;;;;;;;;;;;5015225;28;19961;-78
2022/05/06 16:08:11;;;;;;;;;;;;;;;;;;5001265;28;19917;-78
2022/05/06 16:10:37;;;;;;;;;;;;;;;;;;4991084;28;19925;-80
2022/05/06 16:13:03;;;;;;;;;;;;;;;;;;5011842;28;20343;-78
2022/05/06 16:15:29;;;;;;;;;;;;;;;;;;4989818;28;19944;-79
2022/05/06 16:17:55;;;;;;;;;;;;;;;;;;4992478;28;19965;-79
2022/05/06 16:20:21;;;;;;;;;;;;;;;;;;5021872;28;19987;-78
2022/05/06 16:22:47;;;;;;;;;;;;;;;;;;5019336;28;20502;-78
2022/05/06 16:25:13;;;;;;;;;;;;;;;;;;4998476;28;19929;-78
2022/05/06 16:27:39;;;;;;;;;;;;;;;;;;5000004;28;20017;-78
2022/05/06 16:30:05;;;;;;;;;;;;;;;;;;5018521;28;20004;-77
2022/05/06 16:32:31;;;;;;;;;;;;;;;;;;5002360;28;19924;-78
2022/05/06 16:37:48;;;;;;;;;;;;;;;;;;5015746;28;19928;-79
2022/05/06 16:40:15;;;;;;;;;;;;;;;;;;4997381;28;19925;-77
2022/05/06 16:42:41;;;;;;;;;;;;;;;;;;5013280;28;19940;-78
2022/05/06 16:45:07;;;;;;;;;;;;;;;;;;5011519;28;19917;-78
2022/05/06 16:47:33;;;;;;;;;;;;;;;;;;5013908;28;20351;-78
2022/05/06 16:49:58;;;;;;;;;;;;;;;;;;5013091;28;20325;-78
2022/05/06 16:52:24;;;;;;;;;;;;;;;;;;4992177;28;20008;-79
2022/05/06 16:54:50;;;;;;;;;;;;;;;;;;5000183;28;19916;-77
2022/05/06 16:57:16;;;;;;;;;;;;;;;;;;5000011;28;19913;-78
2022/05/06 16:59:42;;;;;;;;;;;;;;;;;;5011161;28;20063;-78
2022/05/06 17:02:08;;;;;;;;;;;;;;;;;;4993462;28;20036;-77
2022/05/06 17:04:34;;;;;;;;;;;;;;;;;;4996400;28;19975;-78
2022/05/06 17:07:00;;;;;;;;;;;;;;;;;;4991977;28;20422;-78
2022/05/06 17:09:26;;;;;;;;;;;;;;;;;;4994852;28;19917;-77
2022/05/06 17:11:52;;;;;;;;;;;;;;;;;;5005257;28;20004;-78
2022/05/06 17:14:18;;;;;;;;;;;;;;;;;;4994798;28;19921;-77
2022/05/06 17:16:44;;;;;;;;;;;;;;;;;;4991551;28;19917;-77
2022/05/06 17:19:10;;;;;;;;;;;;;;;;;;4989635;28;19971;-78
2022/05/06 17:21:36;;;;;;;;;;;;;;;;;;5009354;28;19922;-79
2022/05/06 17:24:05;;;;;;;;;;;;;;;;;;5020791;28;19913;-84
2022/05/06 17:26:31;;;;;;;;;;;;;;;;;;5001794;28;20294;-78
2022/05/06 17:28:57;;;;;;;;;;;;;;;;;;4998269;28;19921;-77
2022/05/06 17:31:23;;;;;;;;;;;;;;;;;;5014030;28;19928;-77